sensor_id;sensor_type;location;lat;lon;timestamp;P1;durP1;ratioP1;P2;durP2;ratioP2
26536;SDS011;14204;51.262;5.488;2023-03-26T00:00:57;34.30;;;6.90;;
26536;SDS011;14204;51.262;5.488;2023-03-26T00:03:23;30.50;;;6.50;;
26536;SDS011;14204;51.262;5.488;2023-03-26T00:05:59;35.60;;;5.90;;
26536;SDS011;14204;51.262;5.488;2023-03-26T00:08:32;37.25;;;6.72;;
26536;SDS011;14204;51.262;5.488;2023-03-26T00:11:02;27.45;;;5.35;;
26536;SDS011;14204;51.262;5.488;2023-03-26T00:13:29;37.10;;;6.60;;
26536;SDS011;14204;51.262;5.488;2023-03-26T00:15:56;33.00;;;5.93;;
26536;SDS011;14204;51.262;5.488;2023-03-26T00:18:22;27.90;;;5.47;;
26536;SDS011;14204;51.262;5.488;2023-03-26T00:20:54;27.75;;;6.00;;
26536;SDS011;14204;51.262;5.488;2023-03-26T00:23:23;27.08;;;5.75;;
26536;SDS011;14204;51.262;5.488;2023-03-26T00:25:51;38.83;;;6.45;;
26536;SDS011;14204;51.262;5.488;2023-03-26T00:28:17;31.40;;;5.38;;
26536;SDS011;14204;51.262;5.488;2023-03-26T00:30:47;31.58;;;5.68;;
26536;SDS011;14204;51.262;5.488;2023-03-26T00:33:13;30.90;;;6.05;;
26536;SDS011;14204;51.262;5.488;2023-03-26T00:35:50;27.80;;;5.55;;
26536;SDS011;14204;51.262;5.488;2023-03-26T00:38:18;32.63;;;5.60;;
26536;SDS011;14204;51.262;5.488;2023-03-26T00:40:46;33.83;;;5.60;;
26536;SDS011;14204;51.262;5.488;2023-03-26T00:43:15;33.53;;;5.53;;
26536;SDS011;14204;51.262;5.488;2023-03-26T00:45:48;32.60;;;6.35;;
26536;SDS011;14204;51.262;5.488;2023-03-26T00:48:18;31.42;;;5.07;;
26536;SDS011;14204;51.262;5.488;2023-03-26T00:50:45;32.63;;;5.40;;
26536;SDS011;14204;51.262;5.488;2023-03-26T00:53:12;29.55;;;5.57;;
26536;SDS011;14204;51.262;5.488;2023-03-26T00:55:39;31.58;;;4.45;;
26536;SDS011;14204;51.262;5.488;2023-03-26T00:58:06;35.70;;;6.18;;
26536;SDS011;14204;51.262;5.488;2023-03-26T01:00:35;31.73;;;5.82;;
26536;SDS011;14204;51.262;5.488;2023-03-26T01:03:15;32.90;;;6.03;;
26536;SDS011;14204;51.262;5.488;2023-03-26T01:11:07;31.25;;;4.97;;
26536;SDS011;14204;51.262;5.488;2023-03-26T01:13:40;23.70;;;5.13;;
26536;SDS011;14204;51.262;5.488;2023-03-26T01:16:13;38.63;;;5.93;;
26536;SDS011;14204;51.262;5.488;2023-03-26T01:19:01;23.52;;;4.47;;
26536;SDS011;14204;51.262;5.488;2023-03-26T01:21:34;34.17;;;5.57;;
26536;SDS011;14204;51.262;5.488;2023-03-26T01:24:03;35.22;;;5.97;;
26536;SDS011;14204;51.262;5.488;2023-03-26T01:29:11;32.33;;;5.80;;
26536;SDS011;14204;51.262;5.488;2023-03-26T01:42:27;29.08;;;5.53;;
26536;SDS011;14204;51.262;5.488;2023-03-26T01:47:35;34.15;;;5.35;;
26536;SDS011;14204;51.262;5.488;2023-03-26T01:50:03;30.52;;;5.60;;
26536;SDS011;14204;51.262;5.488;2023-03-26T01:52:29;27.17;;;4.55;;
26536;SDS011;14204;51.262;5.488;2023-03-26T01:54:55;29.17;;;5.05;;
26536;SDS011;14204;51.262;5.488;2023-03-26T02:08:31;26.45;;;5.43;;
26536;SDS011;14204;51.262;5.488;2023-03-26T02:11:00;27.80;;;4.75;;
26536;SDS011;14204;51.262;5.488;2023-03-26T02:13:30;27.02;;;6.30;;
26536;SDS011;14204;51.262;5.488;2023-03-26T02:15:57;24.58;;;5.60;;
26536;SDS011;14204;51.262;5.488;2023-03-26T02:18:25;25.92;;;5.40;;
26536;SDS011;14204;51.262;5.488;2023-03-26T02:21:01;32.33;;;6.13;;
26536;SDS011;14204;51.262;5.488;2023-03-26T02:23:34;29.33;;;5.93;;
26536;SDS011;14204;51.262;5.488;2023-03-26T02:26:06;31.50;;;6.18;;
26536;SDS011;14204;51.262;5.488;2023-03-26T02:28:33;33.05;;;6.05;;
26536;SDS011;14204;51.262;5.488;2023-03-26T02:30:59;39.33;;;6.28;;
26536;SDS011;14204;51.262;5.488;2023-03-26T02:33:26;29.48;;;5.53;;
26536;SDS011;14204;51.262;5.488;2023-03-26T02:35:53;33.08;;;6.30;;
26536;SDS011;14204;51.262;5.488;2023-03-26T02:38:18;31.27;;;5.22;;
26536;SDS011;14204;51.262;5.488;2023-03-26T02:40:44;25.35;;;5.85;;
26536;SDS011;14204;51.262;5.488;2023-03-26T02:43:10;27.02;;;5.45;;
26536;SDS011;14204;51.262;5.488;2023-03-26T02:45:35;27.08;;;5.07;;
26536;SDS011;14204;51.262;5.488;2023-03-26T02:48:01;24.65;;;4.63;;
26536;SDS011;14204;51.262;5.488;2023-03-26T02:50:27;21.00;;;4.57;;
26536;SDS011;14204;51.262;5.488;2023-03-26T02:52:56;29.27;;;5.22;;
26536;SDS011;14204;51.262;5.488;2023-03-26T02:55:22;25.60;;;5.05;;
26536;SDS011;14204;51.262;5.488;2023-03-26T02:57:48;25.63;;;4.95;;
26536;SDS011;14204;51.262;5.488;2023-03-26T03:00:14;21.90;;;5.15;;
26536;SDS011;14204;51.262;5.488;2023-03-26T03:02:41;26.00;;;4.78;;
26536;SDS011;14204;51.262;5.488;2023-03-26T03:05:08;18.52;;;4.25;;
26536;SDS011;14204;51.262;5.488;2023-03-26T03:07:34;23.15;;;4.72;;
26536;SDS011;14204;51.262;5.488;2023-03-26T03:10:02;25.58;;;4.38;;
26536;SDS011;14204;51.262;5.488;2023-03-26T03:12:32;22.27;;;4.82;;
26536;SDS011;14204;51.262;5.488;2023-03-26T03:14:58;27.42;;;4.88;;
26536;SDS011;14204;51.262;5.488;2023-03-26T03:17:24;21.67;;;5.47;;
26536;SDS011;14204;51.262;5.488;2023-03-26T03:19:49;21.17;;;4.03;;
26536;SDS011;14204;51.262;5.488;2023-03-26T03:22:15;27.48;;;4.97;;
26536;SDS011;14204;51.262;5.488;2023-03-26T03:24:40;28.92;;;4.85;;
26536;SDS011;14204;51.262;5.488;2023-03-26T03:27:08;27.23;;;4.20;;
26536;SDS011;14204;51.262;5.488;2023-03-26T03:29:34;30.90;;;4.35;;
26536;SDS011;14204;51.262;5.488;2023-03-26T03:31:59;22.83;;;5.10;;
26536;SDS011;14204;51.262;5.488;2023-03-26T03:34:25;23.73;;;4.72;;
26536;SDS011;14204;51.262;5.488;2023-03-26T03:36:51;28.58;;;4.90;;
26536;SDS011;14204;51.262;5.488;2023-03-26T03:39:17;19.13;;;4.45;;
26536;SDS011;14204;51.262;5.488;2023-03-26T03:41:43;30.52;;;4.60;;
26536;SDS011;14204;51.262;5.488;2023-03-26T03:44:09;24.20;;;5.05;;
26536;SDS011;14204;51.262;5.488;2023-03-26T03:46:34;21.20;;;4.22;;
26536;SDS011;14204;51.262;5.488;2023-03-26T03:49:00;17.35;;;3.95;;
26536;SDS011;14204;51.262;5.488;2023-03-26T03:51:26;23.88;;;4.03;;
26536;SDS011;14204;51.262;5.488;2023-03-26T03:53:52;16.45;;;3.88;;
26536;SDS011;14204;51.262;5.488;2023-03-26T03:56:19;21.55;;;3.83;;
26536;SDS011;14204;51.262;5.488;2023-03-26T03:58:48;21.27;;;4.20;;
26536;SDS011;14204;51.262;5.488;2023-03-26T04:01:14;26.33;;;4.80;;
26536;SDS011;14204;51.262;5.488;2023-03-26T04:03:41;19.63;;;4.10;;
26536;SDS011;14204;51.262;5.488;2023-03-26T04:06:10;23.48;;;4.80;;
26536;SDS011;14204;51.262;5.488;2023-03-26T04:08:36;29.58;;;4.93;;
26536;SDS011;14204;51.262;5.488;2023-03-26T04:11:02;23.35;;;4.05;;
26536;SDS011;14204;51.262;5.488;2023-03-26T04:13:28;21.30;;;3.85;;
26536;SDS011;14204;51.262;5.488;2023-03-26T04:15:54;16.40;;;4.15;;
26536;SDS011;14204;51.262;5.488;2023-03-26T04:18:20;19.58;;;3.88;;
26536;SDS011;14204;51.262;5.488;2023-03-26T04:20:46;15.48;;;3.58;;
26536;SDS011;14204;51.262;5.488;2023-03-26T04:23:12;21.85;;;3.95;;
26536;SDS011;14204;51.262;5.488;2023-03-26T04:25:42;15.45;;;3.63;;
26536;SDS011;14204;51.262;5.488;2023-03-26T04:31:09;13.98;;;4.00;;
26536;SDS011;14204;51.262;5.488;2023-03-26T04:33:39;21.48;;;3.75;;
26536;SDS011;14204;51.262;5.488;2023-03-26T04:36:11;16.13;;;3.80;;
26536;SDS011;14204;51.262;5.488;2023-03-26T04:38:40;23.65;;;4.15;;
26536;SDS011;14204;51.262;5.488;2023-03-26T04:41:11;26.38;;;4.88;;
26536;SDS011;14204;51.262;5.488;2023-03-26T04:43:37;23.60;;;4.32;;
26536;SDS011;14204;51.262;5.488;2023-03-26T04:46:07;24.30;;;4.22;;
26536;SDS011;14204;51.262;5.488;2023-03-26T04:48:34;21.23;;;4.03;;
26536;SDS011;14204;51.262;5.488;2023-03-26T04:51:02;12.90;;;3.75;;
26536;SDS011;14204;51.262;5.488;2023-03-26T04:53:31;17.08;;;3.63;;
26536;SDS011;14204;51.262;5.488;2023-03-26T04:55:59;22.55;;;4.22;;
26536;SDS011;14204;51.262;5.488;2023-03-26T04:58:30;17.58;;;3.38;;
26536;SDS011;14204;51.262;5.488;2023-03-26T05:00:59;15.85;;;3.63;;
26536;SDS011;14204;51.262;5.488;2023-03-26T05:03:28;16.70;;;3.28;;
26536;SDS011;14204;51.262;5.488;2023-03-26T05:05:57;15.32;;;3.25;;
26536;SDS011;14204;51.262;5.488;2023-03-26T05:08:24;20.60;;;3.63;;
26536;SDS011;14204;51.262;5.488;2023-03-26T05:10:52;26.45;;;4.00;;
26536;SDS011;14204;51.262;5.488;2023-03-26T05:13:21;19.02;;;3.58;;
26536;SDS011;14204;51.262;5.488;2023-03-26T05:15:47;20.58;;;4.10;;
26536;SDS011;14204;51.262;5.488;2023-03-26T05:18:13;16.20;;;4.22;;
26536;SDS011;14204;51.262;5.488;2023-03-26T05:20:39;17.10;;;3.95;;
26536;SDS011;14204;51.262;5.488;2023-03-26T05:23:05;15.65;;;3.30;;
26536;SDS011;14204;51.262;5.488;2023-03-26T05:25:33;15.95;;;3.35;;
26536;SDS011;14204;51.262;5.488;2023-03-26T05:27:59;15.95;;;3.40;;
26536;SDS011;14204;51.262;5.488;2023-03-26T05:30:25;14.80;;;3.65;;
26536;SDS011;14204;51.262;5.488;2023-03-26T05:32:51;20.98;;;3.67;;
26536;SDS011;14204;51.262;5.488;2023-03-26T05:35:17;25.15;;;4.03;;
26536;SDS011;14204;51.262;5.488;2023-03-26T05:37:46;17.98;;;3.63;;
26536;SDS011;14204;51.262;5.488;2023-03-26T05:40:13;23.88;;;4.32;;
26536;SDS011;14204;51.262;5.488;2023-03-26T05:42:41;22.73;;;4.45;;
26536;SDS011;14204;51.262;5.488;2023-03-26T05:45:07;23.55;;;4.47;;
26536;SDS011;14204;51.262;5.488;2023-03-26T05:47:34;18.27;;;4.20;;
26536;SDS011;14204;51.262;5.488;2023-03-26T05:50:01;16.30;;;4.25;;
26536;SDS011;14204;51.262;5.488;2023-03-26T05:52:26;17.42;;;3.90;;
26536;SDS011;14204;51.262;5.488;2023-03-26T05:54:52;20.00;;;5.40;;
26536;SDS011;14204;51.262;5.488;2023-03-26T05:57:18;27.58;;;5.05;;
26536;SDS011;14204;51.262;5.488;2023-03-26T05:59:43;26.98;;;4.57;;
26536;SDS011;14204;51.262;5.488;2023-03-26T06:02:09;25.48;;;4.30;;
26536;SDS011;14204;51.262;5.488;2023-03-26T06:04:35;20.08;;;3.83;;
26536;SDS011;14204;51.262;5.488;2023-03-26T06:07:08;27.67;;;5.13;;
26536;SDS011;14204;51.262;5.488;2023-03-26T06:09:37;23.90;;;4.43;;
26536;SDS011;14204;51.262;5.488;2023-03-26T06:12:04;17.85;;;4.68;;
26536;SDS011;14204;51.262;5.488;2023-03-26T06:14:31;19.02;;;4.32;;
26536;SDS011;14204;51.262;5.488;2023-03-26T06:16:57;19.92;;;4.05;;
26536;SDS011;14204;51.262;5.488;2023-03-26T06:19:23;15.07;;;4.18;;
26536;SDS011;14204;51.262;5.488;2023-03-26T06:21:48;20.08;;;4.45;;
26536;SDS011;14204;51.262;5.488;2023-03-26T06:24:14;29.45;;;4.97;;
26536;SDS011;14204;51.262;5.488;2023-03-26T06:26:44;28.10;;;5.15;;
26536;SDS011;14204;51.262;5.488;2023-03-26T06:29:11;25.35;;;5.13;;
26536;SDS011;14204;51.262;5.488;2023-03-26T06:31:37;15.35;;;4.03;;
26536;SDS011;14204;51.262;5.488;2023-03-26T06:34:04;21.90;;;4.70;;
26536;SDS011;14204;51.262;5.488;2023-03-26T06:36:29;22.15;;;5.38;;
26536;SDS011;14204;51.262;5.488;2023-03-26T06:38:55;21.63;;;4.55;;
26536;SDS011;14204;51.262;5.488;2023-03-26T06:41:20;17.15;;;4.88;;
26536;SDS011;14204;51.262;5.488;2023-03-26T06:43:46;20.83;;;4.53;;
26536;SDS011;14204;51.262;5.488;2023-03-26T06:46:11;30.17;;;6.05;;
26536;SDS011;14204;51.262;5.488;2023-03-26T06:48:39;23.25;;;5.65;;
26536;SDS011;14204;51.262;5.488;2023-03-26T06:51:06;23.70;;;4.90;;
26536;SDS011;14204;51.262;5.488;2023-03-26T06:53:32;23.75;;;4.55;;
26536;SDS011;14204;51.262;5.488;2023-03-26T06:55:58;16.42;;;4.30;;
26536;SDS011;14204;51.262;5.488;2023-03-26T06:58:24;24.67;;;5.57;;
26536;SDS011;14204;51.262;5.488;2023-03-26T07:00:53;28.35;;;5.07;;
26536;SDS011;14204;51.262;5.488;2023-03-26T07:03:19;24.20;;;4.60;;
26536;SDS011;14204;51.262;5.488;2023-03-26T07:05:45;20.42;;;4.65;;
26536;SDS011;14204;51.262;5.488;2023-03-26T07:08:11;21.85;;;5.00;;
26536;SDS011;14204;51.262;5.488;2023-03-26T07:10:37;18.30;;;5.07;;
26536;SDS011;14204;51.262;5.488;2023-03-26T07:13:02;21.92;;;5.63;;
26536;SDS011;14204;51.262;5.488;2023-03-26T07:15:28;22.27;;;5.63;;
26536;SDS011;14204;51.262;5.488;2023-03-26T07:17:54;26.02;;;5.40;;
26536;SDS011;14204;51.262;5.488;2023-03-26T07:20:20;25.05;;;5.30;;
26536;SDS011;14204;51.262;5.488;2023-03-26T07:22:46;22.08;;;4.70;;
26536;SDS011;14204;51.262;5.488;2023-03-26T07:25:12;20.17;;;4.82;;
26536;SDS011;14204;51.262;5.488;2023-03-26T07:27:50;31.02;;;5.43;;
26536;SDS011;14204;51.262;5.488;2023-03-26T07:30:20;27.48;;;4.75;;
26536;SDS011;14204;51.262;5.488;2023-03-26T07:36:07;18.75;;;4.50;;
26536;SDS011;14204;51.262;5.488;2023-03-26T07:41:39;18.77;;;4.65;;
26536;SDS011;14204;51.262;5.488;2023-03-26T07:46:57;19.70;;;4.50;;
26536;SDS011;14204;51.262;5.488;2023-03-26T07:49:25;19.52;;;4.47;;
26536;SDS011;14204;51.262;5.488;2023-03-26T07:51:51;21.73;;;4.43;;
26536;SDS011;14204;51.262;5.488;2023-03-26T07:54:17;26.85;;;5.47;;
26536;SDS011;14204;51.262;5.488;2023-03-26T07:56:48;26.63;;;4.88;;
26536;SDS011;14204;51.262;5.488;2023-03-26T08:05:04;18.67;;;4.60;;
26536;SDS011;14204;51.262;5.488;2023-03-26T08:10:30;11.88;;;3.75;;
26536;SDS011;14204;51.262;5.488;2023-03-26T08:13:13;19.55;;;4.60;;
26536;SDS011;14204;51.262;5.488;2023-03-26T08:15:58;15.82;;;4.43;;
26536;SDS011;14204;51.262;5.488;2023-03-26T08:18:50;12.07;;;3.30;;
26536;SDS011;14204;51.262;5.488;2023-03-26T08:21:26;13.05;;;2.75;;
26536;SDS011;14204;51.262;5.488;2023-03-26T08:24:24;15.48;;;3.55;;
26536;SDS011;14204;51.262;5.488;2023-03-26T08:29:41;21.77;;;3.80;;
26536;SDS011;14204;51.262;5.488;2023-03-26T08:34:43;9.93;;;3.20;;
26536;SDS011;14204;51.262;5.488;2023-03-26T08:37:09;10.95;;;2.80;;
26536;SDS011;14204;51.262;5.488;2023-03-26T08:39:35;13.27;;;3.00;;
26536;SDS011;14204;51.262;5.488;2023-03-26T08:42:18;11.20;;;2.67;;
26536;SDS011;14204;51.262;5.488;2023-03-26T08:45:43;14.88;;;2.80;;
26536;SDS011;14204;51.262;5.488;2023-03-26T08:48:39;8.60;;;2.65;;
26536;SDS011;14204;51.262;5.488;2023-03-26T09:10:45;6.88;;;2.40;;
26536;SDS011;14204;51.262;5.488;2023-03-26T09:13:40;8.43;;;2.10;;
26536;SDS011;14204;51.262;5.488;2023-03-26T09:24:52;7.13;;;1.70;;
26536;SDS011;14204;51.262;5.488;2023-03-26T09:36:18;10.80;;;2.05;;
26536;SDS011;14204;51.262;5.488;2023-03-26T09:54:12;4.95;;;1.70;;
26536;SDS011;14204;51.262;5.488;2023-03-26T10:13:23;2.17;;;0.90;;
26536;SDS011;14204;51.262;5.488;2023-03-26T10:26:35;2.22;;;1.08;;
26536;SDS011;14204;51.262;5.488;2023-03-26T10:32:05;4.60;;;1.10;;
26536;SDS011;14204;51.262;5.488;2023-03-26T10:40:05;2.83;;;1.25;;
26536;SDS011;14204;51.262;5.488;2023-03-26T10:42:39;2.55;;;0.90;;
26536;SDS011;14204;51.262;5.488;2023-03-26T10:53:40;2.63;;;1.10;;
26536;SDS011;14204;51.262;5.488;2023-03-26T10:56:13;4.47;;;1.17;;
26536;SDS011;14204;51.262;5.488;2023-03-26T10:58:41;4.55;;;1.50;;
26536;SDS011;14204;51.262;5.488;2023-03-26T11:01:12;2.88;;;1.30;;
26536;SDS011;14204;51.262;5.488;2023-03-26T11:06:25;5.68;;;1.45;;
26536;SDS011;14204;51.262;5.488;2023-03-26T11:11:45;3.65;;;1.30;;
26536;SDS011;14204;51.262;5.488;2023-03-26T11:25:41;2.97;;;1.20;;
26536;SDS011;14204;51.262;5.488;2023-03-26T11:28:17;1.40;;;1.30;;
26536;SDS011;14204;51.262;5.488;2023-03-26T11:30:57;3.75;;;1.45;;
26536;SDS011;14204;51.262;5.488;2023-03-26T11:33:36;3.22;;;1.00;;
26536;SDS011;14204;51.262;5.488;2023-03-26T11:38:37;2.00;;;1.20;;
26536;SDS011;14204;51.262;5.488;2023-03-26T11:41:14;1.67;;;1.00;;
26536;SDS011;14204;51.262;5.488;2023-03-26T11:43:44;0.98;;;0.88;;
26536;SDS011;14204;51.262;5.488;2023-03-26T11:46:14;1.27;;;0.60;;
26536;SDS011;14204;51.262;5.488;2023-03-26T11:48:44;2.35;;;1.00;;
26536;SDS011;14204;51.262;5.488;2023-03-26T11:51:15;1.35;;;1.00;;
26536;SDS011;14204;51.262;5.488;2023-03-26T11:53:42;0.95;;;0.80;;
26536;SDS011;14204;51.262;5.488;2023-03-26T11:56:17;2.97;;;1.10;;
26536;SDS011;14204;51.262;5.488;2023-03-26T11:59:15;2.10;;;1.70;;
26536;SDS011;14204;51.262;5.488;2023-03-26T12:01:57;2.95;;;2.00;;
26536;SDS011;14204;51.262;5.488;2023-03-26T12:04:41;3.78;;;1.42;;
26536;SDS011;14204;51.262;5.488;2023-03-26T12:07:18;1.38;;;1.17;;
26536;SDS011;14204;51.262;5.488;2023-03-26T12:09:59;2.40;;;1.00;;
26536;SDS011;14204;51.262;5.488;2023-03-26T12:12:35;2.25;;;1.60;;
26536;SDS011;14204;51.262;5.488;2023-03-26T12:15:03;3.00;;;1.30;;
26536;SDS011;14204;51.262;5.488;2023-03-26T12:17:37;2.17;;;1.58;;
26536;SDS011;14204;51.262;5.488;2023-03-26T12:20:37;1.83;;;1.13;;
26536;SDS011;14204;51.262;5.488;2023-03-26T12:22:58;2.70;;;1.30;;
26536;SDS011;14204;51.262;5.488;2023-03-26T12:25:26;3.33;;;1.67;;
26536;SDS011;14204;51.262;5.488;2023-03-26T12:30:29;1.40;;;1.13;;
26536;SDS011;14204;51.262;5.488;2023-03-26T12:33:01;2.70;;;1.33;;
26536;SDS011;14204;51.262;5.488;2023-03-26T12:35:30;1.40;;;1.30;;
26536;SDS011;14204;51.262;5.488;2023-03-26T12:40:46;1.73;;;1.60;;
26536;SDS011;14204;51.262;5.488;2023-03-26T12:43:20;1.90;;;1.70;;
26536;SDS011;14204;51.262;5.488;2023-03-26T12:45:52;2.47;;;1.58;;
26536;SDS011;14204;51.262;5.488;2023-03-26T12:48:19;2.08;;;1.88;;
26536;SDS011;14204;51.262;5.488;2023-03-26T13:02:55;2.03;;;1.63;;
26536;SDS011;14204;51.262;5.488;2023-03-26T13:05:47;1.50;;;1.40;;
26536;SDS011;14204;51.262;5.488;2023-03-26T13:25:29;1.60;;;1.45;;
26536;SDS011;14204;51.262;5.488;2023-03-26T13:28:05;2.35;;;1.40;;
26536;SDS011;14204;51.262;5.488;2023-03-26T13:31:11;3.83;;;1.63;;
26536;SDS011;14204;51.262;5.488;2023-03-26T13:33:48;2.58;;;1.48;;
26536;SDS011;14204;51.262;5.488;2023-03-26T13:36:27;4.82;;;1.50;;
26536;SDS011;14204;51.262;5.488;2023-03-26T13:45:05;2.13;;;1.42;;
26536;SDS011;14204;51.262;5.488;2023-03-26T13:47:40;2.78;;;1.73;;
26536;SDS011;14204;51.262;5.488;2023-03-26T13:50:55;7.80;;;2.10;;
26536;SDS011;14204;51.262;5.488;2023-03-26T13:53:05;1.35;;;1.27;;
26536;SDS011;14204;51.262;5.488;2023-03-26T14:08:49;2.40;;;1.80;;
26536;SDS011;14204;51.262;5.488;2023-03-26T14:11:21;1.42;;;1.33;;
26536;SDS011;14204;51.262;5.488;2023-03-26T14:13:59;1.80;;;1.42;;
26536;SDS011;14204;51.262;5.488;2023-03-26T14:16:38;1.63;;;1.50;;
26536;SDS011;14204;51.262;5.488;2023-03-26T14:22:12;3.03;;;1.60;;
26536;SDS011;14204;51.262;5.488;2023-03-26T14:27:15;1.95;;;1.70;;
26536;SDS011;14204;51.262;5.488;2023-03-26T14:40:56;1.98;;;1.77;;
26536;SDS011;14204;51.262;5.488;2023-03-26T14:43:38;1.83;;;1.70;;
26536;SDS011;14204;51.262;5.488;2023-03-26T14:46:39;2.63;;;2.20;;
26536;SDS011;14204;51.262;5.488;2023-03-26T14:49:46;2.00;;;1.90;;
26536;SDS011;14204;51.262;5.488;2023-03-26T14:55:04;2.75;;;2.00;;
26536;SDS011;14204;51.262;5.488;2023-03-26T15:17:40;5.00;;;4.20;;
26536;SDS011;14204;51.262;5.488;2023-03-26T15:31:35;12.63;;;6.00;;
26536;SDS011;14204;51.262;5.488;2023-03-26T15:34:28;14.18;;;6.15;;
26536;SDS011;14204;51.262;5.488;2023-03-26T15:37:35;18.33;;;7.15;;
26536;SDS011;14204;51.262;5.488;2023-03-26T15:43:20;22.60;;;6.80;;
26536;SDS011;14204;51.262;5.488;2023-03-26T15:46:13;18.85;;;6.90;;
26536;SDS011;14204;51.262;5.488;2023-03-26T16:02:52;27.30;;;6.63;;
26536;SDS011;14204;51.262;5.488;2023-03-26T16:05:44;24.70;;;6.35;;
26536;SDS011;14204;51.262;5.488;2023-03-26T16:08:24;17.45;;;5.13;;
26536;SDS011;14204;51.262;5.488;2023-03-26T16:14:23;15.98;;;4.30;;
26536;SDS011;14204;51.262;5.488;2023-03-26T16:17:26;22.83;;;5.43;;
26536;SDS011;14204;51.262;5.488;2023-03-26T16:22:52;21.75;;;4.75;;
26536;SDS011;14204;51.262;5.488;2023-03-26T16:28:05;21.48;;;4.93;;
26536;SDS011;14204;51.262;5.488;2023-03-26T16:30:43;18.70;;;4.75;;
26536;SDS011;14204;51.262;5.488;2023-03-26T16:33:34;19.38;;;4.57;;
26536;SDS011;14204;51.262;5.488;2023-03-26T16:49:47;18.10;;;4.63;;
26536;SDS011;14204;51.262;5.488;2023-03-26T16:54:47;21.52;;;4.80;;
26536;SDS011;14204;51.262;5.488;2023-03-26T16:57:27;22.67;;;4.93;;
26536;SDS011;14204;51.262;5.488;2023-03-26T17:03:15;23.38;;;5.25;;
26536;SDS011;14204;51.262;5.488;2023-03-26T17:09:04;23.65;;;5.47;;
26536;SDS011;14204;51.262;5.488;2023-03-26T17:17:30;16.60;;;4.53;;
26536;SDS011;14204;51.262;5.488;2023-03-26T17:20:10;17.98;;;4.63;;
26536;SDS011;14204;51.262;5.488;2023-03-26T17:31:01;13.80;;;3.75;;
26536;SDS011;14204;51.262;5.488;2023-03-26T17:41:01;26.02;;;4.00;;
26536;SDS011;14204;51.262;5.488;2023-03-26T17:46:00;13.05;;;3.70;;
26536;SDS011;14204;51.262;5.488;2023-03-26T17:48:28;19.10;;;3.92;;
26536;SDS011;14204;51.262;5.488;2023-03-26T17:51:04;14.77;;;4.00;;
26536;SDS011;14204;51.262;5.488;2023-03-26T17:53:46;14.82;;;4.03;;
26536;SDS011;14204;51.262;5.488;2023-03-26T17:56:14;11.20;;;3.40;;
26536;SDS011;14204;51.262;5.488;2023-03-26T17:58:45;12.15;;;3.85;;
26536;SDS011;14204;51.262;5.488;2023-03-26T18:03:58;22.10;;;3.55;;
26536;SDS011;14204;51.262;5.488;2023-03-26T18:17:22;16.67;;;3.35;;
26536;SDS011;14204;51.262;5.488;2023-03-26T18:19:53;19.98;;;3.83;;
26536;SDS011;14204;51.262;5.488;2023-03-26T18:22:21;14.63;;;3.35;;
26536;SDS011;14204;51.262;5.488;2023-03-26T18:24:50;22.83;;;3.42;;
26536;SDS011;14204;51.262;5.488;2023-03-26T18:27:22;12.25;;;3.47;;
26536;SDS011;14204;51.262;5.488;2023-03-26T18:32:21;22.70;;;3.33;;
26536;SDS011;14204;51.262;5.488;2023-03-26T18:34:54;15.20;;;3.55;;
26536;SDS011;14204;51.262;5.488;2023-03-26T18:37:41;13.32;;;3.63;;
26536;SDS011;14204;51.262;5.488;2023-03-26T18:40:13;13.93;;;3.17;;
26536;SDS011;14204;51.262;5.488;2023-03-26T18:42:49;13.50;;;3.40;;
26536;SDS011;14204;51.262;5.488;2023-03-26T18:47:57;11.40;;;2.60;;
26536;SDS011;14204;51.262;5.488;2023-03-26T18:50:27;14.38;;;2.85;;
26536;SDS011;14204;51.262;5.488;2023-03-26T18:52:58;17.48;;;3.17;;
26536;SDS011;14204;51.262;5.488;2023-03-26T18:55:31;11.32;;;3.15;;
26536;SDS011;14204;51.262;5.488;2023-03-26T18:58:48;13.73;;;2.72;;
26536;SDS011;14204;51.262;5.488;2023-03-26T19:00:53;12.75;;;2.92;;
26536;SDS011;14204;51.262;5.488;2023-03-26T19:03:22;14.25;;;3.00;;
26536;SDS011;14204;51.262;5.488;2023-03-26T19:05:49;19.83;;;3.80;;
26536;SDS011;14204;51.262;5.488;2023-03-26T19:08:17;14.18;;;3.33;;
26536;SDS011;14204;51.262;5.488;2023-03-26T19:10:45;9.10;;;2.85;;
26536;SDS011;14204;51.262;5.488;2023-03-26T19:13:15;12.00;;;3.10;;
26536;SDS011;14204;51.262;5.488;2023-03-26T19:15:41;14.65;;;3.17;;
26536;SDS011;14204;51.262;5.488;2023-03-26T19:18:13;15.77;;;3.03;;
26536;SDS011;14204;51.262;5.488;2023-03-26T19:23:29;16.95;;;2.83;;
26536;SDS011;14204;51.262;5.488;2023-03-26T19:25:56;12.50;;;2.30;;
26536;SDS011;14204;51.262;5.488;2023-03-26T19:33:38;6.13;;;2.40;;
26536;SDS011;14204;51.262;5.488;2023-03-26T19:38:40;11.83;;;2.00;;
26536;SDS011;14204;51.262;5.488;2023-03-26T19:41:16;18.98;;;2.85;;
26536;SDS011;14204;51.262;5.488;2023-03-26T19:43:53;9.60;;;3.03;;
26536;SDS011;14204;51.262;5.488;2023-03-26T19:46:23;11.77;;;2.15;;
26536;SDS011;14204;51.262;5.488;2023-03-26T19:48:51;13.20;;;2.78;;
26536;SDS011;14204;51.262;5.488;2023-03-26T19:51:30;10.00;;;2.33;;
26536;SDS011;14204;51.262;5.488;2023-03-26T19:54:01;11.73;;;2.60;;
26536;SDS011;14204;51.262;5.488;2023-03-26T19:56:36;10.93;;;2.33;;
26536;SDS011;14204;51.262;5.488;2023-03-26T19:59:01;15.85;;;2.75;;
26536;SDS011;14204;51.262;5.488;2023-03-26T20:01:28;11.10;;;2.15;;
26536;SDS011;14204;51.262;5.488;2023-03-26T20:03:56;17.67;;;2.50;;
26536;SDS011;14204;51.262;5.488;2023-03-26T20:06:25;11.45;;;2.10;;
26536;SDS011;14204;51.262;5.488;2023-03-26T20:08:54;11.48;;;2.67;;
26536;SDS011;14204;51.262;5.488;2023-03-26T20:13:48;13.02;;;2.60;;
26536;SDS011;14204;51.262;5.488;2023-03-26T20:16:20;11.40;;;2.42;;
26536;SDS011;14204;51.262;5.488;2023-03-26T20:18:50;14.50;;;2.08;;
26536;SDS011;14204;51.262;5.488;2023-03-26T20:21:16;11.13;;;2.22;;
26536;SDS011;14204;51.262;5.488;2023-03-26T20:23:42;11.45;;;2.25;;
26536;SDS011;14204;51.262;5.488;2023-03-26T20:26:09;9.30;;;2.22;;
26536;SDS011;14204;51.262;5.488;2023-03-26T20:28:40;19.25;;;2.85;;
26536;SDS011;14204;51.262;5.488;2023-03-26T20:31:13;8.75;;;2.33;;
26536;SDS011;14204;51.262;5.488;2023-03-26T20:33:41;11.98;;;2.45;;
26536;SDS011;14204;51.262;5.488;2023-03-26T20:36:09;9.57;;;2.10;;
26536;SDS011;14204;51.262;5.488;2023-03-26T20:38:37;10.18;;;2.00;;
26536;SDS011;14204;51.262;5.488;2023-03-26T20:41:03;11.40;;;2.20;;
26536;SDS011;14204;51.262;5.488;2023-03-26T20:43:30;12.57;;;2.13;;
26536;SDS011;14204;51.262;5.488;2023-03-26T20:45:56;11.40;;;2.22;;
26536;SDS011;14204;51.262;5.488;2023-03-26T20:48:22;10.73;;;2.25;;
26536;SDS011;14204;51.262;5.488;2023-03-26T20:50:50;8.15;;;1.67;;
26536;SDS011;14204;51.262;5.488;2023-03-26T20:53:16;9.50;;;2.00;;
26536;SDS011;14204;51.262;5.488;2023-03-26T20:55:44;15.23;;;2.20;;
26536;SDS011;14204;51.262;5.488;2023-03-26T20:58:11;11.18;;;2.00;;
26536;SDS011;14204;51.262;5.488;2023-03-26T21:00:39;10.82;;;2.20;;
26536;SDS011;14204;51.262;5.488;2023-03-26T21:03:10;16.65;;;2.63;;
26536;SDS011;14204;51.262;5.488;2023-03-26T21:05:37;13.98;;;3.10;;
26536;SDS011;14204;51.262;5.488;2023-03-26T21:08:05;9.77;;;2.03;;
26536;SDS011;14204;51.262;5.488;2023-03-26T21:10:31;9.45;;;3.08;;
26536;SDS011;14204;51.262;5.488;2023-03-26T21:13:11;14.98;;;1.80;;
26536;SDS011;14204;51.262;5.488;2023-03-26T21:15:48;13.05;;;2.25;;
26536;SDS011;14204;51.262;5.488;2023-03-26T21:18:14;8.55;;;1.50;;
26536;SDS011;14204;51.262;5.488;2023-03-26T21:20:40;11.02;;;1.70;;
26536;SDS011;14204;51.262;5.488;2023-03-26T21:23:23;12.32;;;2.25;;
26536;SDS011;14204;51.262;5.488;2023-03-26T21:25:58;12.27;;;2.40;;